createdAt,value
2023-03-15T00:00:02.126Z,0
2023-03-15T00:05:02.096Z,0
2023-03-15T00:10:02.093Z,0
2023-03-15T00:15:02.136Z,0
2023-03-15T00:20:02.051Z,0
2023-03-15T00:25:02.099Z,0
2023-03-15T00:30:02.045Z,0
2023-03-15T00:35:02.364Z,0
2023-03-15T00:40:02.159Z,0
2023-03-15T00:45:02.084Z,0
2023-03-15T00:50:02.046Z,0
2023-03-15T00:55:02.104Z,0
2023-03-15T01:00:02.125Z,0
2023-03-15T01:05:02.140Z,0
2023-03-15T01:10:03.840Z,0
2023-03-15T01:15:02.135Z,0
2023-03-15T01:20:02.115Z,0
2023-03-15T01:25:02.116Z,0
2023-03-15T01:30:02.171Z,0
2023-03-15T01:35:02.186Z,0
2023-03-15T01:40:02.096Z,0
2023-03-15T01:45:02.157Z,0
2023-03-15T01:50:02.132Z,0
2023-03-15T01:55:02.153Z,0
2023-03-15T02:00:02.319Z,0
2023-03-15T02:05:02.138Z,0
2023-03-15T02:10:02.338Z,0
2023-03-15T02:15:02.370Z,0
2023-03-15T02:20:02.706Z,0
2023-03-15T02:25:02.343Z,0
2023-03-15T02:30:02.329Z,0
2023-03-15T02:35:02.352Z,0
2023-03-15T02:40:02.353Z,0
2023-03-15T02:45:02.320Z,0
2023-03-15T02:50:02.400Z,0
2023-03-15T02:55:02.349Z,0
2023-03-15T03:00:02.370Z,0
2023-03-15T03:05:02.360Z,0
2023-03-15T03:10:02.380Z,0
2023-03-15T03:15:02.331Z,0
2023-03-15T03:20:02.298Z,0
2023-03-15T03:25:02.287Z,0
2023-03-15T03:30:02.270Z,0
2023-03-15T03:35:02.331Z,0
2023-03-15T03:40:02.249Z,0
2023-03-15T03:45:02.445Z,0
2023-03-15T03:50:02.377Z,0
2023-03-15T03:55:02.291Z,0
2023-03-15T04:00:02.489Z,0
2023-03-15T04:05:02.277Z,0
2023-03-15T04:10:02.358Z,0
2023-03-15T04:15:02.362Z,0
2023-03-15T04:20:02.290Z,0
2023-03-15T04:25:02.268Z,0
2023-03-15T04:30:02.249Z,0
2023-03-15T04:35:02.406Z,0
2023-03-15T04:40:02.377Z,0
2023-03-15T04:45:02.390Z,0
2023-03-15T04:50:02.442Z,0
2023-03-15T04:55:02.255Z,0
2023-03-15T05:00:02.344Z,0
2023-03-15T05:05:02.370Z,0
2023-03-15T05:10:02.351Z,0
2023-03-15T05:15:02.401Z,0
2023-03-15T05:20:02.385Z,0
2023-03-15T05:25:02.324Z,0
2023-03-15T05:30:02.328Z,0
2023-03-15T05:35:02.386Z,0
2023-03-15T05:40:02.359Z,0.31355555555555553
2023-03-15T05:45:02.355Z,0.44593650793650796
2023-03-15T05:50:02.374Z,0.4747830687830688
2023-03-15T05:55:02.349Z,0.8108042328042327
2023-03-15T06:00:02.392Z,1.117185185185185
2023-03-15T06:05:02.354Z,1.4006772486772487
2023-03-15T06:10:02.399Z,1.6623386243386244
2023-03-15T06:15:02.447Z,1.939862433862434
2023-03-15T06:20:02.330Z,2.275862433862434
2023-03-15T06:25:02.537Z,2.9495555555555555
2023-03-15T06:30:02.387Z,5.609322751322752
2023-03-15T06:35:02.408Z,7.352465608465608
2023-03-15T06:40:02.445Z,8.686698412698412
2023-03-15T06:45:02.390Z,9.937174603174604
2023-03-15T06:50:02.438Z,11.353492063492062
2023-03-15T06:55:02.453Z,12.937238095238095
2023-03-15T07:00:02.448Z,14.700613756613755
2023-03-15T07:05:02.492Z,15.856560846560846
2023-03-15T07:10:03.623Z,18.426021164021165
2023-03-15T07:15:02.472Z,21.156973544973546
2023-03-15T07:20:02.436Z,23.135301587301587
2023-03-15T07:25:02.460Z,25.248349206349207
2023-03-15T07:30:02.436Z,27.24450793650794
2023-03-15T07:35:02.490Z,29.493005291005293
2023-03-15T07:40:02.455Z,31.524507936507938
2023-03-15T07:45:02.434Z,33.57357671957672
2023-03-15T07:50:02.488Z,31.820751322751324
2023-03-15T07:55:02.512Z,29.249523809523808
2023-03-15T08:00:02.393Z,22.378253968253965
2023-03-15T08:05:02.497Z,28.11298412698413
2023-03-15T08:10:03.647Z,40.315798941798946
2023-03-15T08:15:02.475Z,44.91495238095238
2023-03-15T08:20:02.433Z,44.43862433862434
2023-03-15T08:25:02.503Z,49.1647619047619
2023-03-15T08:30:02.517Z,51.30541798941799
2023-03-15T08:35:02.553Z,52.30844444444445
2023-03-15T08:40:02.505Z,53.49546031746032
2023-03-15T08:45:02.551Z,55.48614814814815
2023-03-15T08:50:02.578Z,59.87639153439154
2023-03-15T08:55:02.547Z,56.53424338624339
2023-03-15T09:00:02.459Z,60.62653968253969
2023-03-15T09:05:02.488Z,62.16107936507937
2023-03-15T09:10:05.351Z,64.39202116402116
2023-03-15T09:15:02.515Z,68.34307936507938
2023-03-15T09:20:02.555Z,69.85069841269842
2023-03-15T09:25:02.553Z,75.41863492063491
2023-03-15T09:30:02.535Z,76.58928042328043
2023-03-15T09:35:02.523Z,68.89881481481481
2023-03-15T09:40:02.568Z,68.00380952380954
2023-03-15T09:45:02.543Z,83.61128042328043
2023-03-15T09:50:02.610Z,68.13987301587301
2023-03-15T09:55:02.602Z,48.10866666666667
2023-03-15T10:00:02.601Z,43.384645502645505
2023-03-15T10:05:02.613Z,76.17428571428572
2023-03-15T10:10:02.597Z,47.04713227513227
2023-03-15T10:15:02.577Z,64.06542857142857
2023-03-15T10:20:02.616Z,43.74468783068784
2023-03-15T10:25:02.609Z,48.11184126984128
2023-03-15T10:30:02.564Z,14.608878306878307
2023-03-15T10:35:02.633Z,34.39635978835979
2023-03-15T10:40:02.687Z,86.2032380952381
2023-03-15T10:45:02.631Z,56.28037037037037
2023-03-15T10:50:02.594Z,53.82136507936508
2023-03-15T10:55:04.491Z,56.03360846560847
2023-03-15T11:00:02.638Z,11.028359788359788
2023-03-15T11:05:02.729Z,46.4043597883598
2023-03-15T11:10:02.712Z,51.66835978835979
2023-03-15T11:15:02.762Z,65.83920634920635
2023-03-15T11:20:02.713Z,88.33119576719577
2023-03-15T11:25:02.859Z,25.452910052910056
2023-03-15T11:30:02.745Z,31.161925925925928
2023-03-15T11:35:02.820Z,49.429291005291006
2023-03-15T11:40:11.068Z,82.10728042328043
2023-03-15T11:45:02.766Z,86.8321164021164
2023-03-15T11:50:02.795Z,36.85384126984127
2023-03-15T11:55:02.769Z,28.304603174603173
2023-03-15T12:00:02.844Z,67.36560846560847
2023-03-15T12:05:12.543Z,9.339132275132275
2023-03-15T12:10:02.872Z,24.943978835978836
2023-03-15T12:15:02.946Z,91.06268783068784
2023-03-15T12:20:01.086Z,63.257248677248676
2023-03-15T12:25:01.087Z,85.51577777777779
2023-03-15T12:30:01.126Z,84.64344973544974
2023-03-15T12:35:01.166Z,82.76568253968254
2023-03-15T12:40:01.146Z,82.06910052910052
2023-03-15T12:45:01.098Z,82.46088888888889
2023-03-15T12:50:01.136Z,62.182941798941805
2023-03-15T12:55:01.180Z,89.49135449735451
2023-03-15T13:00:01.198Z,82.23696296296296
2023-03-15T13:05:01.380Z,36.3675873015873
2023-03-15T13:10:01.295Z,15.009449735449737
2023-03-15T13:15:01.306Z,60.931566137566136
2023-03-15T13:20:01.303Z,81.13754497354499
2023-03-15T13:25:01.306Z,79.4267619047619
2023-03-15T13:30:01.265Z,76.51241269841269
2023-03-15T13:35:01.355Z,70.67351322751323
2023-03-15T13:40:01.286Z,56.38924867724868
2023-03-15T13:45:01.304Z,20.26822222222222
2023-03-15T13:50:01.294Z,61.96692063492063
2023-03-15T13:55:01.339Z,26.423640211640215
2023-03-15T14:00:01.407Z,42.16033862433862
2023-03-15T14:05:01.407Z,19.880497354497358
2023-03-15T14:10:01.418Z,48.68129100529101
2023-03-15T14:15:01.195Z,56.30495238095238
2023-03-15T14:20:01.206Z,53.28767195767197
2023-03-15T14:25:01.216Z,51.23876190476191
2023-03-15T14:30:01.233Z,48.01499470899471
2023-03-15T14:35:01.175Z,36.35315343915344
2023-03-15T14:40:01.203Z,48.080582010582006
2023-03-15T14:45:01.279Z,42.68258201058201
2023-03-15T14:50:01.320Z,40.35625396825397
2023-03-15T14:55:01.232Z,36.616264550264546
2023-03-15T15:00:01.251Z,34.54388359788359
2023-03-15T15:05:01.334Z,32.50324867724868
2023-03-15T15:10:01.307Z,31.84461375661376
2023-03-15T15:15:01.293Z,31.841206349206352
2023-03-15T15:20:01.256Z,16.178074074074072
2023-03-15T15:25:01.297Z,25.909291005291003
2023-03-15T15:30:01.394Z,25.266751322751325
2023-03-15T15:35:01.307Z,25.80571428571428
2023-03-15T15:40:01.223Z,24.68952380952381
2023-03-15T15:45:01.288Z,24.205915343915343
2023-03-15T15:50:01.295Z,23.204931216931215
2023-03-15T15:55:01.298Z,19.95164021164021
2023-03-15T16:00:01.279Z,16.285492063492065
2023-03-15T16:05:01.345Z,3.540613756613757
2023-03-15T16:10:01.538Z,3.5566560846560846
2023-03-15T16:15:01.277Z,11.94447619047619
2023-03-15T16:20:01.292Z,9.481407407407408
2023-03-15T16:25:01.293Z,6.608084656084657
2023-03-15T16:30:01.375Z,5.993904761904761
2023-03-15T16:35:04.755Z,2.944666666666667
2023-03-15T16:40:01.390Z,1.3513968253968256
2023-03-15T16:45:01.363Z,0.5246137566137566
2023-03-15T16:50:01.325Z,0.26956613756613756
2023-03-15T16:55:01.325Z,0.3554920634920635
2023-03-15T17:00:03.252Z,0.32962962962962966
2023-03-15T17:05:01.398Z,0
2023-03-15T17:10:01.822Z,0
2023-03-15T17:15:01.317Z,0
2023-03-15T17:20:01.637Z,0
2023-03-15T17:25:01.369Z,0
2023-03-15T17:30:02.407Z,0
2023-03-15T17:35:01.383Z,0
2023-03-15T17:40:01.364Z,0
2023-03-15T17:45:01.612Z,0
2023-03-15T17:50:01.468Z,0
2023-03-15T17:55:01.374Z,0
2023-03-15T18:00:01.419Z,0
2023-03-15T18:05:05.690Z,0
2023-03-15T18:10:01.488Z,0
2023-03-15T18:15:01.461Z,0
2023-03-15T18:20:01.392Z,0
2023-03-15T18:25:01.416Z,0
2023-03-15T18:30:01.360Z,0
2023-03-15T18:35:01.425Z,0
2023-03-15T18:40:01.476Z,0
2023-03-15T18:45:01.481Z,0
2023-03-15T18:50:09.865Z,0
2023-03-15T18:55:01.434Z,0
2023-03-15T19:00:01.503Z,0
2023-03-15T19:05:01.401Z,0
2023-03-15T19:10:01.739Z,0
2023-03-15T19:15:01.663Z,0
2023-03-15T19:20:01.444Z,0
2023-03-15T19:25:01.655Z,0
2023-03-15T19:30:01.480Z,0
2023-03-15T19:35:01.873Z,0
2023-03-15T19:40:01.955Z,0
2023-03-15T19:45:01.422Z,0
2023-03-15T19:50:01.508Z,0
2023-03-15T19:55:01.542Z,0
2023-03-15T20:00:01.491Z,0
2023-03-15T20:05:01.714Z,0
2023-03-15T20:10:01.517Z,0
2023-03-15T20:15:01.524Z,0
2023-03-15T20:20:01.472Z,0
2023-03-15T20:25:01.553Z,0
2023-03-15T20:30:01.575Z,0
2023-03-15T20:35:01.492Z,0
2023-03-15T20:40:01.549Z,0
2023-03-15T20:45:01.512Z,0
2023-03-15T20:50:01.521Z,0
2023-03-15T20:55:01.545Z,0
2023-03-15T21:00:01.542Z,0
2023-03-15T21:05:01.571Z,0
2023-03-15T21:10:01.492Z,0
2023-03-15T21:15:01.581Z,0
2023-03-15T21:20:01.595Z,0
2023-03-15T21:25:01.524Z,0
2023-03-15T21:30:01.544Z,0
2023-03-15T21:35:01.630Z,0
2023-03-15T21:40:01.635Z,0
2023-03-15T21:45:01.554Z,0
2023-03-15T21:50:01.545Z,0
2023-03-15T21:55:01.516Z,0
2023-03-15T22:00:01.602Z,0
2023-03-15T22:05:01.653Z,0
2023-03-15T22:10:01.552Z,0
2023-03-15T22:15:05.501Z,0
2023-03-15T22:20:01.614Z,0
2023-03-15T22:25:01.556Z,0
2023-03-15T22:30:01.599Z,0
2023-03-15T22:35:01.687Z,0
2023-03-15T22:40:01.592Z,0
2023-03-15T22:45:01.569Z,0
2023-03-15T22:50:01.625Z,0
2023-03-15T22:55:01.669Z,0
2023-03-15T23:00:01.678Z,0
2023-03-15T23:05:01.768Z,0
2023-03-15T23:10:01.690Z,0
2023-03-15T23:15:03.979Z,0
2023-03-15T23:20:01.725Z,0
2023-03-15T23:25:01.604Z,0
2023-03-15T23:30:01.601Z,0
2023-03-15T23:35:01.752Z,0
2023-03-15T23:40:03.222Z,0
2023-03-15T23:45:01.687Z,0
2023-03-15T23:50:01.671Z,0
2023-03-15T23:55:01.670Z,0
